sensor_id;sensor_type;location;lat;lon;timestamp;P1;P2;P0
55043;PMS5003;54902;50.420;18.854;2023-05-23T00:00:06;9;9;7
55043;PMS5003;54902;50.420;18.854;2023-05-23T00:00:37;9;9;7
55043;PMS5003;54902;50.420;18.854;2023-05-23T00:01:08;9;9;7
55043;PMS5003;54902;50.420;18.854;2023-05-23T00:01:39;13;13;9
55043;PMS5003;54902;50.420;18.854;2023-05-23T00:02:12;13;13;9
55043;PMS5003;54902;50.420;18.854;2023-05-23T00:02:45;13;13;9
55043;PMS5003;54902;50.420;18.854;2023-05-23T00:03:17;13;13;9
55043;PMS5003;54902;50.420;18.854;2023-05-23T00:03:52;13;13;9
55043;PMS5003;54902;50.420;18.854;2023-05-23T00:04:25;13;13;9
55043;PMS5003;54902;50.420;18.854;2023-05-23T00:04:56;13;13;9
55043;PMS5003;54902;50.420;18.854;2023-05-23T00:05:28;13;13;9
55043;PMS5003;54902;50.420;18.854;2023-05-23T00:05:59;13;13;9
55043;PMS5003;54902;50.420;18.854;2023-05-23T00:06:31;13;13;9
55043;PMS5003;54902;50.420;18.854;2023-05-23T00:07:03;14;14;11
55043;PMS5003;54902;50.420;18.854;2023-05-23T00:07:35;14;14;11
55043;PMS5003;54902;50.420;18.854;2023-05-23T00:08:06;14;14;11
55043;PMS5003;54902;50.420;18.854;2023-05-23T00:08:37;14;14;11
55043;PMS5003;54902;50.420;18.854;2023-05-23T00:09:08;14;14;11
55043;PMS5003;54902;50.420;18.854;2023-05-23T00:09:39;14;14;11
55043;PMS5003;54902;50.420;18.854;2023-05-23T00:10:10;14;14;11
55043;PMS5003;54902;50.420;18.854;2023-05-23T00:10:42;14;14;11
55043;PMS5003;54902;50.420;18.854;2023-05-23T00:11:13;14;14;11
55043;PMS5003;54902;50.420;18.854;2023-05-23T00:11:44;14;14;11
55043;PMS5003;54902;50.420;18.854;2023-05-23T00:12:15;18;18;15
55043;PMS5003;54902;50.420;18.854;2023-05-23T00:12:46;18;18;15
55043;PMS5003;54902;50.420;18.854;2023-05-23T00:13:17;18;18;15
55043;PMS5003;54902;50.420;18.854;2023-05-23T00:13:48;18;18;15
55043;PMS5003;54902;50.420;18.854;2023-05-23T00:14:20;18;18;15
55043;PMS5003;54902;50.420;18.854;2023-05-23T00:14:52;18;18;15
55043;PMS5003;54902;50.420;18.854;2023-05-23T00:15:23;18;18;15
55043;PMS5003;54902;50.420;18.854;2023-05-23T00:15:54;18;18;15
55043;PMS5003;54902;50.420;18.854;2023-05-23T00:16:26;18;18;15
55043;PMS5003;54902;50.420;18.854;2023-05-23T00:16:57;18;18;15
55043;PMS5003;54902;50.420;18.854;2023-05-23T00:17:34;18;18;15
55043;PMS5003;54902;50.420;18.854;2023-05-23T00:18:09;18;18;15
55043;PMS5003;54902;50.420;18.854;2023-05-23T00:18:40;18;18;15
55043;PMS5003;54902;50.420;18.854;2023-05-23T00:19:14;18;18;15
55043;PMS5003;54902;50.420;18.854;2023-05-23T00:19:46;18;18;15
55043;PMS5003;54902;50.420;18.854;2023-05-23T00:20:17;18;18;15
55043;PMS5003;54902;50.420;18.854;2023-05-23T00:20:48;18;18;15
55043;PMS5003;54902;50.420;18.854;2023-05-23T00:21:21;15;15;13
55043;PMS5003;54902;50.420;18.854;2023-05-23T00:21:52;15;15;13
55043;PMS5003;54902;50.420;18.854;2023-05-23T00:22:26;15;15;13
55043;PMS5003;54902;50.420;18.854;2023-05-23T00:22:57;15;15;11
55043;PMS5003;54902;50.420;18.854;2023-05-23T00:23:28;15;15;11
55043;PMS5003;54902;50.420;18.854;2023-05-23T00:23:59;15;15;11
55043;PMS5003;54902;50.420;18.854;2023-05-23T00:24:31;15;15;11
55043;PMS5003;54902;50.420;18.854;2023-05-23T00:25:02;15;15;11
55043;PMS5003;54902;50.420;18.854;2023-05-23T00:25:34;15;15;11
55043;PMS5003;54902;50.420;18.854;2023-05-23T00:26:05;15;15;11
55043;PMS5003;54902;50.420;18.854;2023-05-23T00:26:36;15;15;11
55043;PMS5003;54902;50.420;18.854;2023-05-23T00:27:08;15;15;11
55043;PMS5003;54902;50.420;18.854;2023-05-23T00:27:39;15;15;11
55043;PMS5003;54902;50.420;18.854;2023-05-23T00:28:09;19;19;13
55043;PMS5003;54902;50.420;18.854;2023-05-23T00:28:40;19;19;13
55043;PMS5003;54902;50.420;18.854;2023-05-23T00:29:11;19;19;13
55043;PMS5003;54902;50.420;18.854;2023-05-23T00:29:46;19;19;13
55043;PMS5003;54902;50.420;18.854;2023-05-23T00:30:17;19;19;13
55043;PMS5003;54902;50.420;18.854;2023-05-23T00:30:48;19;19;13
55043;PMS5003;54902;50.420;18.854;2023-05-23T00:31:19;14;14;10
55043;PMS5003;54902;50.420;18.854;2023-05-23T00:31:50;14;14;10
55043;PMS5003;54902;50.420;18.854;2023-05-23T00:32:21;14;14;10
55043;PMS5003;54902;50.420;18.854;2023-05-23T00:32:52;14;14;10
55043;PMS5003;54902;50.420;18.854;2023-05-23T00:33:24;11;11;8
55043;PMS5003;54902;50.420;18.854;2023-05-23T00:33:55;11;11;8
55043;PMS5003;54902;50.420;18.854;2023-05-23T00:34:26;11;11;8
55043;PMS5003;54902;50.420;18.854;2023-05-23T00:34:58;11;11;8
55043;PMS5003;54902;50.420;18.854;2023-05-23T00:35:29;11;11;8
55043;PMS5003;54902;50.420;18.854;2023-05-23T00:36:00;11;11;8
55043;PMS5003;54902;50.420;18.854;2023-05-23T00:36:31;11;11;8
55043;PMS5003;54902;50.420;18.854;2023-05-23T00:37:06;11;11;8
55043;PMS5003;54902;50.420;18.854;2023-05-23T00:37:37;11;11;8
55043;PMS5003;54902;50.420;18.854;2023-05-23T00:38:09;11;11;8
55043;PMS5003;54902;50.420;18.854;2023-05-23T00:38:40;13;13;10
55043;PMS5003;54902;50.420;18.854;2023-05-23T00:39:15;13;13;10
55043;PMS5003;54902;50.420;18.854;2023-05-23T00:39:49;13;13;10
55043;PMS5003;54902;50.420;18.854;2023-05-23T00:40:20;13;13;10
55043;PMS5003;54902;50.420;18.854;2023-05-23T00:40:52;13;13;10
55043;PMS5003;54902;50.420;18.854;2023-05-23T00:41:23;13;13;10
55043;PMS5003;54902;50.420;18.854;2023-05-23T00:42:02;13;13;10
55043;PMS5003;54902;50.420;18.854;2023-05-23T00:42:35;13;13;10
55043;PMS5003;54902;50.420;18.854;2023-05-23T00:43:06;13;13;10
55043;PMS5003;54902;50.420;18.854;2023-05-23T00:43:41;13;13;10
55043;PMS5003;54902;50.420;18.854;2023-05-23T00:44:12;13;13;10
55043;PMS5003;54902;50.420;18.854;2023-05-23T00:44:43;13;13;10
55043;PMS5003;54902;50.420;18.854;2023-05-23T00:45:14;13;13;10
55043;PMS5003;54902;50.420;18.854;2023-05-23T00:45:47;13;13;10
55043;PMS5003;54902;50.420;18.854;2023-05-23T00:46:18;11;11;9
55043;PMS5003;54902;50.420;18.854;2023-05-23T00:46:50;11;11;9
55043;PMS5003;54902;50.420;18.854;2023-05-23T00:47:24;11;11;9
55043;PMS5003;54902;50.420;18.854;2023-05-23T00:47:55;11;11;9
55043;PMS5003;54902;50.420;18.854;2023-05-23T00:48:29;11;11;9
55043;PMS5003;54902;50.420;18.854;2023-05-23T00:49:00;11;11;9
55043;PMS5003;54902;50.420;18.854;2023-05-23T00:49:31;10;10;9
55043;PMS5003;54902;50.420;18.854;2023-05-23T00:50:02;10;10;9
55043;PMS5003;54902;50.420;18.854;2023-05-23T00:50:34;10;10;9
55043;PMS5003;54902;50.420;18.854;2023-05-23T00:51:05;10;10;9
55043;PMS5003;54902;50.420;18.854;2023-05-23T00:51:37;10;10;9
55043;PMS5003;54902;50.420;18.854;2023-05-23T00:52:08;10;10;9
55043;PMS5003;54902;50.420;18.854;2023-05-23T00:52:40;10;10;9
55043;PMS5003;54902;50.420;18.854;2023-05-23T00:53:13;10;10;9
55043;PMS5003;54902;50.420;18.854;2023-05-23T00:53:46;10;10;9
55043;PMS5003;54902;50.420;18.854;2023-05-23T00:54:17;10;10;9
55043;PMS5003;54902;50.420;18.854;2023-05-23T00:54:53;5;5;4
55043;PMS5003;54902;50.420;18.854;2023-05-23T00:55:24;5;5;4
55043;PMS5003;54902;50.420;18.854;2023-05-23T00:55:56;5;5;4
55043;PMS5003;54902;50.420;18.854;2023-05-23T00:56:27;5;5;4
55043;PMS5003;54902;50.420;18.854;2023-05-23T00:56:59;5;5;4
55043;PMS5003;54902;50.420;18.854;2023-05-23T00:57:30;5;5;4
55043;PMS5003;54902;50.420;18.854;2023-05-23T00:58:04;10;10;7
55043;PMS5003;54902;50.420;18.854;2023-05-23T00:58:35;10;10;7
55043;PMS5003;54902;50.420;18.854;2023-05-23T00:59:06;10;10;7
55043;PMS5003;54902;50.420;18.854;2023-05-23T00:59:38;10;10;7
55043;PMS5003;54902;50.420;18.854;2023-05-23T01:00:11;13;13;10
55043;PMS5003;54902;50.420;18.854;2023-05-23T01:00:43;13;13;10
55043;PMS5003;54902;50.420;18.854;2023-05-23T01:01:19;13;13;10
55043;PMS5003;54902;50.420;18.854;2023-05-23T01:01:51;13;13;10
55043;PMS5003;54902;50.420;18.854;2023-05-23T01:02:25;13;13;10
55043;PMS5003;54902;50.420;18.854;2023-05-23T01:02:57;13;13;10
55043;PMS5003;54902;50.420;18.854;2023-05-23T01:03:28;13;13;10
55043;PMS5003;54902;50.420;18.854;2023-05-23T01:03:59;13;13;10
55043;PMS5003;54902;50.420;18.854;2023-05-23T01:04:33;13;13;10
55043;PMS5003;54902;50.420;18.854;2023-05-23T01:05:05;13;13;10
55043;PMS5003;54902;50.420;18.854;2023-05-23T01:05:37;16;16;12
55043;PMS5003;54902;50.420;18.854;2023-05-23T01:06:10;6;5;4
55043;PMS5003;54902;50.420;18.854;2023-05-23T01:06:41;6;5;4
55043;PMS5003;54902;50.420;18.854;2023-05-23T01:07:18;6;5;4
55043;PMS5003;54902;50.420;18.854;2023-05-23T01:07:49;6;5;4
55043;PMS5003;54902;50.420;18.854;2023-05-23T01:08:21;6;5;4
55043;PMS5003;54902;50.420;18.854;2023-05-23T01:08:52;9;8;6
55043;PMS5003;54902;50.420;18.854;2023-05-23T01:09:23;9;8;6
55043;PMS5003;54902;50.420;18.854;2023-05-23T01:09:56;9;8;6
55043;PMS5003;54902;50.420;18.854;2023-05-23T01:10:28;9;8;6
55043;PMS5003;54902;50.420;18.854;2023-05-23T01:11:01;12;12;10
55043;PMS5003;54902;50.420;18.854;2023-05-23T01:11:41;12;12;10
55043;PMS5003;54902;50.420;18.854;2023-05-23T01:13:05;12;12;10
55043;PMS5003;54902;50.420;18.854;2023-05-23T01:13:46;12;12;10
55043;PMS5003;54902;50.420;18.854;2023-05-23T01:14:34;12;12;10
55043;PMS5003;54902;50.420;18.854;2023-05-23T01:15:14;12;12;10
55043;PMS5003;54902;50.420;18.854;2023-05-23T01:15:57;12;12;10
55043;PMS5003;54902;50.420;18.854;2023-05-23T01:16:36;12;12;10
55043;PMS5003;54902;50.420;18.854;2023-05-23T01:17:20;12;12;10
55043;PMS5003;54902;50.420;18.854;2023-05-23T01:18:00;15;15;12
55043;PMS5003;54902;50.420;18.854;2023-05-23T01:19:01;15;15;12
55043;PMS5003;54902;50.420;18.854;2023-05-23T01:20:07;15;15;12
55043;PMS5003;54902;50.420;18.854;2023-05-23T01:20:47;15;15;12
55043;PMS5003;54902;50.420;18.854;2023-05-23T01:21:21;15;15;12
55043;PMS5003;54902;50.420;18.854;2023-05-23T01:21:54;15;15;12
55043;PMS5003;54902;50.420;18.854;2023-05-23T01:22:37;12;12;9
55043;PMS5003;54902;50.420;18.854;2023-05-23T01:28:22;9;9;7
55043;PMS5003;54902;50.420;18.854;2023-05-23T01:29:00;9;9;7
55043;PMS5003;54902;50.420;18.854;2023-05-23T01:29:44;9;9;7
55043;PMS5003;54902;50.420;18.854;2023-05-23T01:30:18;9;9;7
55043;PMS5003;54902;50.420;18.854;2023-05-23T01:30:50;9;9;7
55043;PMS5003;54902;50.420;18.854;2023-05-23T01:31:22;12;12;9
55043;PMS5003;54902;50.420;18.854;2023-05-23T01:31:57;12;12;9
55043;PMS5003;54902;50.420;18.854;2023-05-23T01:32:30;12;12;9
55043;PMS5003;54902;50.420;18.854;2023-05-23T01:33:02;12;12;9
55043;PMS5003;54902;50.420;18.854;2023-05-23T01:33:34;12;12;9
55043;PMS5003;54902;50.420;18.854;2023-05-23T01:34:07;12;12;9
55043;PMS5003;54902;50.420;18.854;2023-05-23T01:34:39;12;12;9
55043;PMS5003;54902;50.420;18.854;2023-05-23T01:35:11;12;12;9
55043;PMS5003;54902;50.420;18.854;2023-05-23T01:35:50;12;12;9
55043;PMS5003;54902;50.420;18.854;2023-05-23T01:36:22;11;11;8
55043;PMS5003;54902;50.420;18.854;2023-05-23T01:36:53;9;9;6
55043;PMS5003;54902;50.420;18.854;2023-05-23T01:37:27;9;9;6
55043;PMS5003;54902;50.420;18.854;2023-05-23T01:37:59;9;9;6
55043;PMS5003;54902;50.420;18.854;2023-05-23T01:38:30;9;9;6
55043;PMS5003;54902;50.420;18.854;2023-05-23T01:39:01;9;9;6
55043;PMS5003;54902;50.420;18.854;2023-05-23T01:39:32;9;9;6
55043;PMS5003;54902;50.420;18.854;2023-05-23T01:40:03;9;9;6
55043;PMS5003;54902;50.420;18.854;2023-05-23T01:40:34;9;9;6
55043;PMS5003;54902;50.420;18.854;2023-05-23T01:41:05;9;9;6
55043;PMS5003;54902;50.420;18.854;2023-05-23T01:41:36;9;9;6
55043;PMS5003;54902;50.420;18.854;2023-05-23T01:42:07;12;12;9
55043;PMS5003;54902;50.420;18.854;2023-05-23T01:42:42;12;12;9
55043;PMS5003;54902;50.420;18.854;2023-05-23T01:43:13;12;12;9
55043;PMS5003;54902;50.420;18.854;2023-05-23T01:43:45;12;12;9
55043;PMS5003;54902;50.420;18.854;2023-05-23T01:44:17;10;10;7
55043;PMS5003;54902;50.420;18.854;2023-05-23T01:44:48;10;10;7
55043;PMS5003;54902;50.420;18.854;2023-05-23T01:45:19;10;10;7
55043;PMS5003;54902;50.420;18.854;2023-05-23T01:45:52;10;10;7
55043;PMS5003;54902;50.420;18.854;2023-05-23T01:46:25;10;10;7
55043;PMS5003;54902;50.420;18.854;2023-05-23T01:46:58;10;10;7
55043;PMS5003;54902;50.420;18.854;2023-05-23T01:47:29;12;12;9
55043;PMS5003;54902;50.420;18.854;2023-05-23T01:48:01;12;12;9
55043;PMS5003;54902;50.420;18.854;2023-05-23T01:48:35;12;12;9
55043;PMS5003;54902;50.420;18.854;2023-05-23T01:49:10;12;12;9
55043;PMS5003;54902;50.420;18.854;2023-05-23T01:49:43;12;12;9
55043;PMS5003;54902;50.420;18.854;2023-05-23T01:50:15;10;10;8
55043;PMS5003;54902;50.420;18.854;2023-05-23T01:50:47;10;10;8
55043;PMS5003;54902;50.420;18.854;2023-05-23T01:51:18;10;10;8
55043;PMS5003;54902;50.420;18.854;2023-05-23T01:51:51;10;10;8
55043;PMS5003;54902;50.420;18.854;2023-05-23T01:52:23;10;10;8
55043;PMS5003;54902;50.420;18.854;2023-05-23T01:52:55;10;10;8
55043;PMS5003;54902;50.420;18.854;2023-05-23T01:53:27;10;10;8
55043;PMS5003;54902;50.420;18.854;2023-05-23T01:54:00;10;10;8
55043;PMS5003;54902;50.420;18.854;2023-05-23T01:54:31;10;10;8
55043;PMS5003;54902;50.420;18.854;2023-05-23T01:55:05;10;10;8
55043;PMS5003;54902;50.420;18.854;2023-05-23T01:55:43;10;10;8
55043;PMS5003;54902;50.420;18.854;2023-05-23T01:56:15;10;10;8
55043;PMS5003;54902;50.420;18.854;2023-05-23T01:56:46;10;10;8
55043;PMS5003;54902;50.420;18.854;2023-05-23T01:57:20;10;10;8
55043;PMS5003;54902;50.420;18.854;2023-05-23T01:57:55;10;10;8
55043;PMS5003;54902;50.420;18.854;2023-05-23T01:58:27;12;12;10
55043;PMS5003;54902;50.420;18.854;2023-05-23T01:58:59;12;12;10
55043;PMS5003;54902;50.420;18.854;2023-05-23T01:59:31;12;12;10
55043;PMS5003;54902;50.420;18.854;2023-05-23T02:00:05;12;12;10
55043;PMS5003;54902;50.420;18.854;2023-05-23T02:00:37;12;12;10
55043;PMS5003;54902;50.420;18.854;2023-05-23T02:01:08;12;12;10
55043;PMS5003;54902;50.420;18.854;2023-05-23T02:01:39;12;12;10
55043;PMS5003;54902;50.420;18.854;2023-05-23T02:02:10;12;12;10
55043;PMS5003;54902;50.420;18.854;2023-05-23T02:02:41;12;12;10
55043;PMS5003;54902;50.420;18.854;2023-05-23T02:03:12;12;12;10
55043;PMS5003;54902;50.420;18.854;2023-05-23T02:03:43;12;12;10
55043;PMS5003;54902;50.420;18.854;2023-05-23T02:04:15;12;12;10
55043;PMS5003;54902;50.420;18.854;2023-05-23T02:04:47;12;12;10
55043;PMS5003;54902;50.420;18.854;2023-05-23T02:05:18;12;12;10
55043;PMS5003;54902;50.420;18.854;2023-05-23T02:05:49;12;12;10
55043;PMS5003;54902;50.420;18.854;2023-05-23T02:06:20;12;12;10
55043;PMS5003;54902;50.420;18.854;2023-05-23T02:06:51;12;12;10
55043;PMS5003;54902;50.420;18.854;2023-05-23T02:07:22;12;12;10
55043;PMS5003;54902;50.420;18.854;2023-05-23T02:07:53;12;12;10
55043;PMS5003;54902;50.420;18.854;2023-05-23T02:08:24;12;12;10
55043;PMS5003;54902;50.420;18.854;2023-05-23T02:08:55;12;12;10
55043;PMS5003;54902;50.420;18.854;2023-05-23T02:09:26;12;12;10
55043;PMS5003;54902;50.420;18.854;2023-05-23T02:09:57;12;12;10
55043;PMS5003;54902;50.420;18.854;2023-05-23T02:10:28;12;12;10
55043;PMS5003;54902;50.420;18.854;2023-05-23T02:10:59;12;12;10
55043;PMS5003;54902;50.420;18.854;2023-05-23T02:11:30;12;12;10
55043;PMS5003;54902;50.420;18.854;2023-05-23T02:12:01;12;12;10
55043;PMS5003;54902;50.420;18.854;2023-05-23T02:12:32;12;12;10
55043;PMS5003;54902;50.420;18.854;2023-05-23T02:13:04;12;12;10
55043;PMS5003;54902;50.420;18.854;2023-05-23T02:13:34;12;12;10
55043;PMS5003;54902;50.420;18.854;2023-05-23T02:14:06;12;12;10
55043;PMS5003;54902;50.420;18.854;2023-05-23T02:14:37;12;12;10
55043;PMS5003;54902;50.420;18.854;2023-05-23T02:15:11;12;12;10
55043;PMS5003;54902;50.420;18.854;2023-05-23T02:15:42;12;12;10
55043;PMS5003;54902;50.420;18.854;2023-05-23T02:16:13;9;9;7
55043;PMS5003;54902;50.420;18.854;2023-05-23T02:16:43;9;9;7
55043;PMS5003;54902;50.420;18.854;2023-05-23T02:17:15;9;9;7
55043;PMS5003;54902;50.420;18.854;2023-05-23T02:17:46;9;9;7
55043;PMS5003;54902;50.420;18.854;2023-05-23T02:18:17;9;9;7
55043;PMS5003;54902;50.420;18.854;2023-05-23T02:18:49;9;9;7
55043;PMS5003;54902;50.420;18.854;2023-05-23T02:19:22;10;10;9
55043;PMS5003;54902;50.420;18.854;2023-05-23T02:19:53;10;10;9
55043;PMS5003;54902;50.420;18.854;2023-05-23T02:20:24;10;10;9
55043;PMS5003;54902;50.420;18.854;2023-05-23T02:20:55;10;10;9
55043;PMS5003;54902;50.420;18.854;2023-05-23T02:21:26;10;10;9
55043;PMS5003;54902;50.420;18.854;2023-05-23T02:21:57;9;9;7
55043;PMS5003;54902;50.420;18.854;2023-05-23T02:22:28;9;9;7
55043;PMS5003;54902;50.420;18.854;2023-05-23T02:22:59;9;9;7
55043;PMS5003;54902;50.420;18.854;2023-05-23T02:23:30;9;9;7
55043;PMS5003;54902;50.420;18.854;2023-05-23T02:24:01;9;9;7
55043;PMS5003;54902;50.420;18.854;2023-05-23T02:24:32;13;13;9
55043;PMS5003;54902;50.420;18.854;2023-05-23T02:25:03;13;13;9
55043;PMS5003;54902;50.420;18.854;2023-05-23T02:25:34;13;13;9
55043;PMS5003;54902;50.420;18.854;2023-05-23T02:26:05;13;13;9
55043;PMS5003;54902;50.420;18.854;2023-05-23T02:26:36;13;13;9
55043;PMS5003;54902;50.420;18.854;2023-05-23T02:27:07;13;13;9
55043;PMS5003;54902;50.420;18.854;2023-05-23T02:27:38;13;13;9
55043;PMS5003;54902;50.420;18.854;2023-05-23T02:28:09;13;13;9
55043;PMS5003;54902;50.420;18.854;2023-05-23T02:28:42;13;13;9
55043;PMS5003;54902;50.420;18.854;2023-05-23T02:29:13;13;13;9
55043;PMS5003;54902;50.420;18.854;2023-05-23T02:29:43;15;15;11
55043;PMS5003;54902;50.420;18.854;2023-05-23T02:30:15;15;15;11
55043;PMS5003;54902;50.420;18.854;2023-05-23T02:30:46;15;15;11
55043;PMS5003;54902;50.420;18.854;2023-05-23T02:31:17;15;15;11
55043;PMS5003;54902;50.420;18.854;2023-05-23T02:31:48;15;15;11
55043;PMS5003;54902;50.420;18.854;2023-05-23T02:32:20;15;15;11
55043;PMS5003;54902;50.420;18.854;2023-05-23T02:32:51;15;15;11
55043;PMS5003;54902;50.420;18.854;2023-05-23T02:33:22;15;15;11
55043;PMS5003;54902;50.420;18.854;2023-05-23T02:33:53;15;15;11
55043;PMS5003;54902;50.420;18.854;2023-05-23T02:34:24;15;15;11
55043;PMS5003;54902;50.420;18.854;2023-05-23T02:34:55;15;15;11
55043;PMS5003;54902;50.420;18.854;2023-05-23T02:35:27;15;15;11
55043;PMS5003;54902;50.420;18.854;2023-05-23T02:35:58;15;15;11
55043;PMS5003;54902;50.420;18.854;2023-05-23T02:36:28;15;15;11
55043;PMS5003;54902;50.420;18.854;2023-05-23T02:37:03;15;15;11
55043;PMS5003;54902;50.420;18.854;2023-05-23T02:37:34;15;15;11
55043;PMS5003;54902;50.420;18.854;2023-05-23T02:38:05;15;15;11
55043;PMS5003;54902;50.420;18.854;2023-05-23T02:38:36;15;15;11
55043;PMS5003;54902;50.420;18.854;2023-05-23T02:39:07;15;15;11
55043;PMS5003;54902;50.420;18.854;2023-05-23T02:39:37;15;15;11
55043;PMS5003;54902;50.420;18.854;2023-05-23T02:40:11;15;15;11
55043;PMS5003;54902;50.420;18.854;2023-05-23T02:40:42;15;15;11
55043;PMS5003;54902;50.420;18.854;2023-05-23T02:41:13;10;10;6
55043;PMS5003;54902;50.420;18.854;2023-05-23T02:41:44;10;10;6
55043;PMS5003;54902;50.420;18.854;2023-05-23T02:42:15;10;10;6
55043;PMS5003;54902;50.420;18.854;2023-05-23T02:42:46;10;10;6
55043;PMS5003;54902;50.420;18.854;2023-05-23T02:43:17;10;10;6
55043;PMS5003;54902;50.420;18.854;2023-05-23T02:43:48;10;10;6
55043;PMS5003;54902;50.420;18.854;2023-05-23T02:44:19;10;10;6
55043;PMS5003;54902;50.420;18.854;2023-05-23T02:44:50;10;10;6
55043;PMS5003;54902;50.420;18.854;2023-05-23T02:45:21;18;18;12
55043;PMS5003;54902;50.420;18.854;2023-05-23T02:45:53;18;18;12
55043;PMS5003;54902;50.420;18.854;2023-05-23T02:46:24;18;18;12
55043;PMS5003;54902;50.420;18.854;2023-05-23T02:46:55;18;18;12
55043;PMS5003;54902;50.420;18.854;2023-05-23T02:47:26;18;18;12
55043;PMS5003;54902;50.420;18.854;2023-05-23T02:47:57;13;13;10
55043;PMS5003;54902;50.420;18.854;2023-05-23T02:48:27;13;13;10
55043;PMS5003;54902;50.420;18.854;2023-05-23T02:48:58;13;13;10
55043;PMS5003;54902;50.420;18.854;2023-05-23T02:49:30;13;13;10
55043;PMS5003;54902;50.420;18.854;2023-05-23T02:50:01;13;13;10
55043;PMS5003;54902;50.420;18.854;2023-05-23T02:50:32;12;11;8
55043;PMS5003;54902;50.420;18.854;2023-05-23T02:51:03;12;11;8
55043;PMS5003;54902;50.420;18.854;2023-05-23T02:51:34;12;11;8
55043;PMS5003;54902;50.420;18.854;2023-05-23T02:52:05;12;11;8
55043;PMS5003;54902;50.420;18.854;2023-05-23T02:52:37;12;11;8
55043;PMS5003;54902;50.420;18.854;2023-05-23T02:53:07;12;11;8
55043;PMS5003;54902;50.420;18.854;2023-05-23T02:53:38;12;11;8
55043;PMS5003;54902;50.420;18.854;2023-05-23T02:54:10;12;11;8
55043;PMS5003;54902;50.420;18.854;2023-05-23T02:54:41;12;11;8
55043;PMS5003;54902;50.420;18.854;2023-05-23T02:55:12;12;11;8
55043;PMS5003;54902;50.420;18.854;2023-05-23T02:55:43;15;13;10
55043;PMS5003;54902;50.420;18.854;2023-05-23T02:56:14;15;13;10
55043;PMS5003;54902;50.420;18.854;2023-05-23T02:56:45;15;13;10
55043;PMS5003;54902;50.420;18.854;2023-05-23T02:57:16;15;13;10
55043;PMS5003;54902;50.420;18.854;2023-05-23T02:57:47;15;13;10
55043;PMS5003;54902;50.420;18.854;2023-05-23T02:58:18;15;13;10
55043;PMS5003;54902;50.420;18.854;2023-05-23T02:58:49;15;13;10
55043;PMS5003;54902;50.420;18.854;2023-05-23T02:59:22;15;13;10
55043;PMS5003;54902;50.420;18.854;2023-05-23T02:59:53;13;11;9
55043;PMS5003;54902;50.420;18.854;2023-05-23T03:00:24;13;11;9
55043;PMS5003;54902;50.420;18.854;2023-05-23T03:00:55;10;10;8
55043;PMS5003;54902;50.420;18.854;2023-05-23T03:01:26;10;10;8
55043;PMS5003;54902;50.420;18.854;2023-05-23T03:01:57;10;10;8
55043;PMS5003;54902;50.420;18.854;2023-05-23T03:02:28;10;10;8
55043;PMS5003;54902;50.420;18.854;2023-05-23T03:02:58;10;10;8
55043;PMS5003;54902;50.420;18.854;2023-05-23T03:03:29;10;10;8
55043;PMS5003;54902;50.420;18.854;2023-05-23T03:04:01;10;10;8
55043;PMS5003;54902;50.420;18.854;2023-05-23T03:04:32;10;10;8
55043;PMS5003;54902;50.420;18.854;2023-05-23T03:05:03;10;10;8
55043;PMS5003;54902;50.420;18.854;2023-05-23T03:05:35;10;10;8
55043;PMS5003;54902;50.420;18.854;2023-05-23T03:06:06;15;15;12
55043;PMS5003;54902;50.420;18.854;2023-05-23T03:06:43;15;15;12
55043;PMS5003;54902;50.420;18.854;2023-05-23T03:07:14;15;15;12
55043;PMS5003;54902;50.420;18.854;2023-05-23T03:07:45;12;12;9
55043;PMS5003;54902;50.420;18.854;2023-05-23T03:08:17;12;12;9
55043;PMS5003;54902;50.420;18.854;2023-05-23T03:08:48;12;12;9
55043;PMS5003;54902;50.420;18.854;2023-05-23T03:09:19;12;12;9
55043;PMS5003;54902;50.420;18.854;2023-05-23T03:09:51;12;12;9
55043;PMS5003;54902;50.420;18.854;2023-05-23T03:10:21;12;12;9
55043;PMS5003;54902;50.420;18.854;2023-05-23T03:10:52;12;12;9
55043;PMS5003;54902;50.420;18.854;2023-05-23T03:11:23;17;17;13
55043;PMS5003;54902;50.420;18.854;2023-05-23T03:11:55;17;17;13
55043;PMS5003;54902;50.420;18.854;2023-05-23T03:12:26;17;17;13
55043;PMS5003;54902;50.420;18.854;2023-05-23T03:12:58;17;17;13
55043;PMS5003;54902;50.420;18.854;2023-05-23T03:13:29;17;17;13
55043;PMS5003;54902;50.420;18.854;2023-05-23T03:14:00;17;17;13
55043;PMS5003;54902;50.420;18.854;2023-05-23T03:14:31;17;17;13
55043;PMS5003;54902;50.420;18.854;2023-05-23T03:15:02;17;17;13
55043;PMS5003;54902;50.420;18.854;2023-05-23T03:15:33;17;17;13
55043;PMS5003;54902;50.420;18.854;2023-05-23T03:16:04;16;16;13
55043;PMS5003;54902;50.420;18.854;2023-05-23T03:16:36;9;9;6
55043;PMS5003;54902;50.420;18.854;2023-05-23T03:17:07;9;9;6
55043;PMS5003;54902;50.420;18.854;2023-05-23T03:17:37;9;9;6
55043;PMS5003;54902;50.420;18.854;2023-05-23T03:18:08;9;9;6
55043;PMS5003;54902;50.420;18.854;2023-05-23T03:18:41;9;9;6
55043;PMS5003;54902;50.420;18.854;2023-05-23T03:19:12;9;9;6
55043;PMS5003;54902;50.420;18.854;2023-05-23T03:19:43;9;9;6
55043;PMS5003;54902;50.420;18.854;2023-05-23T03:20:14;9;9;6
55043;PMS5003;54902;50.420;18.854;2023-05-23T03:20:45;9;9;6
55043;PMS5003;54902;50.420;18.854;2023-05-23T03:21:19;9;9;6
55043;PMS5003;54902;50.420;18.854;2023-05-23T03:21:50;13;13;9
55043;PMS5003;54902;50.420;18.854;2023-05-23T03:22:21;13;13;9
55043;PMS5003;54902;50.420;18.854;2023-05-23T03:22:52;13;13;9
55043;PMS5003;54902;50.420;18.854;2023-05-23T03:23:23;13;13;9
55043;PMS5003;54902;50.420;18.854;2023-05-23T03:23:54;13;13;9
55043;PMS5003;54902;50.420;18.854;2023-05-23T03:24:25;11;11;8
55043;PMS5003;54902;50.420;18.854;2023-05-23T03:24:56;11;11;8
55043;PMS5003;54902;50.420;18.854;2023-05-23T03:25:27;11;11;8
55043;PMS5003;54902;50.420;18.854;2023-05-23T03:25:58;11;11;8
55043;PMS5003;54902;50.420;18.854;2023-05-23T03:26:29;11;11;8
55043;PMS5003;54902;50.420;18.854;2023-05-23T03:27:00;16;16;13
55043;PMS5003;54902;50.420;18.854;2023-05-23T03:27:31;16;16;13
55043;PMS5003;54902;50.420;18.854;2023-05-23T03:28:02;16;16;13
55043;PMS5003;54902;50.420;18.854;2023-05-23T03:28:33;16;16;13
55043;PMS5003;54902;50.420;18.854;2023-05-23T03:29:03;16;16;13
55043;PMS5003;54902;50.420;18.854;2023-05-23T03:29:36;16;16;13
55043;PMS5003;54902;50.420;18.854;2023-05-23T03:30:07;16;16;13
55043;PMS5003;54902;50.420;18.854;2023-05-23T03:30:38;16;16;13
55043;PMS5003;54902;50.420;18.854;2023-05-23T03:31:09;16;16;13
55043;PMS5003;54902;50.420;18.854;2023-05-23T03:31:40;16;16;13